Simsbury, Connecticut
Current Conditions -  °F | °C
As of 3:51 PM on Saturday 22 Nov 2014 (Local Time) from KBDL Reporting Station
Broken Clouds Broken Clouds  
Wind Chill: 36°   Ceiling: 7500
Heat Index: 43°   Visibility: 10mi
Dew Point:   Wind: 13mph
Humidity: 25%   Direction: 220°SW
Pressure: 30.18"   Gusts: 25mph
Location:  41.88°N, 72.8°W
Report Text: KBDL 222051Z 22011G22KT 10SM BKN075 BKN100 BKN250 06/M13 A3018 RMK AO2 SLP222 T00611128 56021
Loading
Personal Weather Stations






























Interactive Weather Map New forecast layout! Learn more

10-Day Weather Forecast

Advertisements
Track Severe Weather on mobile